Time;durP1;ratioP1;P1;durP2;ratioP2;P2;SDS_P1;SDS_P2;PMS_P1;PMS_P2;Temp;Humidity;BMP_temperature;BMP_pressure;BME280_temperature;BME280_humidity;BME280_pressure;Samples;Min_cycle;Max_cycle;Signal;HPM_P1;HPM_P2
2023/06/15 00:02:19;;;;;;;2.25;1.50;;;;;25.30;101794.00;;;;5082157;28;20194;-77
2023/06/15 00:04:46;;;;;;;2.17;1.83;;;;;25.20;101799.00;;;;5087413;28;20214;-78
2023/06/15 00:07:14;;;;;;;1.75;1.63;;;;;25.20;101800.00;;;;5087635;28;20206;-78
2023/06/15 00:09:41;;;;;;;2.05;1.63;;;;;25.20;101808.00;;;;5087705;28;20198;-77
2023/06/15 00:12:09;;;;;;;4.05;2.47;;;;;25.10;101803.00;;;;5088907;28;20206;-78
2023/06/15 00:14:38;;;;;;;2.28;1.80;;;;;25.10;101804.00;;;;5086219;28;20198;-77
2023/06/15 00:17:08;;;;;;;3.40;1.90;;;;;25.10;101805.00;;;;5069168;28;20205;-77
2023/06/15 00:19:36;;;;;;;15.80;2.20;;;;;25.00;101799.00;;;;5084329;28;20202;-77
2023/06/15 00:22:04;;;;;;;2.92;2.13;;;;;25.00;101798.00;;;;5088752;28;20197;-76
2023/06/15 00:24:31;;;;;;;3.38;2.30;;;;;25.00;101800.00;;;;5083958;28;20636;-77
2023/06/15 00:26:58;;;;;;;2.40;2.20;;;;;24.90;101798.00;;;;5086972;28;20221;-77
2023/06/15 00:29:26;;;;;;;2.38;2.17;;;;;24.90;101798.00;;;;5087505;28;20194;-77
2023/06/15 00:31:54;;;;;;;3.17;2.20;;;;;24.90;101798.00;;;;5087802;28;20238;-77
2023/06/15 00:34:22;;;;;;;5.80;2.20;;;;;24.90;101798.00;;;;5084367;28;20204;-78
2023/06/15 00:36:49;;;;;;;2.65;2.10;;;;;24.90;101808.00;;;;5088922;28;20190;-77
2023/06/15 00:39:16;;;;;;;3.90;2.03;;;;;24.90;101800.00;;;;5087988;28;20205;-77
2023/06/15 00:41:44;;;;;;;5.47;2.63;;;;;24.80;101794.00;;;;5081221;28;20202;-77
2023/06/15 00:44:11;;;;;;;2.75;2.40;;;;;24.80;101798.00;;;;5087758;28;20206;-77
2023/06/15 00:46:40;;;;;;;2.45;2.22;;;;;24.80;101796.00;;;;5086929;28;20226;-78
2023/06/15 00:49:09;;;;;;;2.55;2.35;;;;;24.70;101804.00;;;;5086448;28;20191;-78
2023/06/15 00:51:39;;;;;;;3.13;2.13;;;;;24.70;101802.00;;;;5088350;28;20194;-78
2023/06/15 00:54:08;;;;;;;4.55;2.70;;;;;24.70;101802.00;;;;5086720;28;20190;-77
2023/06/15 00:56:36;;;;;;;2.83;2.00;;;;;24.70;101801.00;;;;5087658;28;20203;-77
2023/06/15 00:59:04;;;;;;;3.80;2.92;;;;;24.70;101803.00;;;;5086748;28;20209;-77
2023/06/15 01:01:31;;;;;;;4.07;2.22;;;;;24.70;101806.00;;;;5087149;28;20198;-77
2023/06/15 01:03:59;;;;;;;3.50;2.78;;;;;24.70;101805.00;;;;5085151;28;20194;-78
2023/06/15 01:06:31;;;;;;;4.15;2.28;;;;;24.60;101805.00;;;;5081153;28;20235;-77
2023/06/15 01:09:01;;;;;;;4.20;2.78;;;;;24.60;101810.00;;;;5085945;28;20603;-77
2023/06/15 01:11:29;;;;;;;2.42;2.17;;;;;24.60;101805.00;;;;5086379;28;20187;-77
2023/06/15 01:13:57;;;;;;;5.10;2.75;;;;;24.60;101800.00;;;;5086740;28;20194;-78
2023/06/15 01:16:28;;;;;;;3.13;2.53;;;;;24.60;101812.00;;;;5070535;28;20199;-77
2023/06/15 01:18:57;;;;;;;2.58;2.28;;;;;24.60;101808.00;;;;5077235;28;20194;-76
2023/06/15 01:21:27;;;;;;;3.08;2.63;;;;;24.50;101806.00;;;;5091196;28;20198;-77
2023/06/15 01:24:08;;;;;;;3.50;2.45;;;;;24.50;101806.00;;;;5081798;28;20190;-77
2023/06/15 01:26:41;;;;;;;2.60;2.38;;;;;24.50;101803.00;;;;5088481;28;20218;-77
2023/06/15 01:29:10;;;;;;;4.53;2.70;;;;;24.50;101807.00;;;;5091241;28;20206;-77
2023/06/15 01:31:40;;;;;;;2.90;2.38;;;;;24.40;101808.00;;;;5089790;28;20234;-77
2023/06/15 01:34:07;;;;;;;4.68;2.92;;;;;24.40;101803.00;;;;5088970;28;20202;-77
2023/06/15 01:36:36;;;;;;;3.25;2.92;;;;;24.40;101802.00;;;;5090407;28;20203;-78
2023/06/15 01:39:05;;;;;;;3.65;3.20;;;;;24.40;101801.00;;;;5089458;28;20198;-77
2023/06/15 01:41:35;;;;;;;3.53;2.92;;;;;24.40;101804.00;;;;5079022;28;20198;-77
2023/06/15 01:44:05;;;;;;;4.60;2.70;;;;;24.30;101797.00;;;;5090034;28;20206;-77
2023/06/15 01:46:33;;;;;;;3.08;2.78;;;;;24.30;101800.00;;;;5089882;28;21016;-77
2023/06/15 01:49:02;;;;;;;4.40;2.45;;;;;24.30;101805.00;;;;5084512;28;20201;-77
2023/06/15 01:51:30;;;;;;;3.97;3.28;;;;;24.30;101795.00;;;;5070459;28;20195;-77
2023/06/15 01:53:58;;;;;;;5.55;2.80;;;;;24.30;101795.00;;;;5089542;28;20202;-77
2023/06/15 01:56:26;;;;;;;3.65;2.72;;;;;24.20;101802.00;;;;5089965;28;20213;-77
2023/06/15 01:58:53;;;;;;;2.83;2.53;;;;;24.20;101798.00;;;;5072655;28;20199;-77
2023/06/15 02:01:22;;;;;;;4.57;2.63;;;;;24.20;101799.00;;;;5069889;28;20209;-77
2023/06/15 02:03:53;;;;;;;4.60;2.80;;;;;24.20;101799.00;;;;5080827;28;20684;-76
2023/06/15 02:06:20;;;;;;;4.72;2.80;;;;;24.20;101801.00;;;;5086728;28;20372;-76
2023/06/15 02:08:47;;;;;;;4.45;2.75;;;;;24.20;101803.00;;;;5091160;28;20636;-76
2023/06/15 02:11:15;;;;;;;3.75;2.80;;;;;24.10;101804.00;;;;5088975;28;20205;-77
2023/06/15 02:13:43;;;;;;;2.63;2.25;;;;;24.10;101801.00;;;;5088842;28;20542;-76
2023/06/15 02:16:11;;;;;;;4.35;2.55;;;;;24.10;101801.00;;;;5086572;28;20255;-76
2023/06/15 02:18:44;;;;;;;3.00;2.20;;;;;24.10;101800.00;;;;5087871;28;20714;-76
2023/06/15 02:21:12;;;;;;;3.20;2.72;;;;;24.10;101804.00;;;;5088549;28;20285;-77
2023/06/15 02:23:40;;;;;;;4.75;2.72;;;;;24.10;101806.00;;;;5087012;28;20199;-76
2023/06/15 02:26:08;;;;;;;5.22;2.65;;;;;24.00;101806.00;;;;5086902;28;20225;-76
2023/06/15 02:28:35;;;;;;;6.90;2.90;;;;;24.00;101807.00;;;;5086614;28;20733;-76
2023/06/15 02:31:03;;;;;;;3.63;2.67;;;;;24.00;101807.00;;;;5085305;28;20229;-75
2023/06/15 02:33:31;;;;;;;5.50;2.55;;;;;24.00;101803.00;;;;5084630;28;20205;-77
2023/06/15 02:35:59;;;;;;;4.30;2.63;;;;;24.00;101807.00;;;;5085535;28;20225;-76
2023/06/15 02:38:27;;;;;;;3.40;2.47;;;;;24.00;101811.00;;;;5085652;28;20209;-76
2023/06/15 02:40:54;;;;;;;9.63;2.85;;;;;24.00;101807.00;;;;5088744;28;20195;-76
2023/06/15 02:43:21;;;;;;;3.50;2.53;;;;;24.00;101808.00;;;;5084515;28;20190;-77
2023/06/15 02:45:48;;;;;;;3.53;2.80;;;;;24.00;101803.00;;;;5088175;28;20195;-76
2023/06/15 02:48:16;;;;;;;2.65;2.17;;;;;23.90;101807.00;;;;5082817;28;20198;-76
2023/06/15 02:50:43;;;;;;;3.85;2.35;;;;;23.90;101813.00;;;;5086753;28;20199;-76
2023/06/15 02:53:12;;;;;;;3.30;2.92;;;;;23.90;101812.00;;;;5088399;28;20207;-76
2023/06/15 02:55:41;;;;;;;3.67;2.65;;;;;23.90;101801.00;;;;5088334;28;20198;-76
2023/06/15 02:58:08;;;;;;;3.97;2.75;;;;;23.90;101812.00;;;;5073858;28;20278;-77
2023/06/15 03:00:37;;;;;;;3.03;2.42;;;;;23.90;101806.00;;;;5076762;28;20210;-76
2023/06/15 03:03:04;;;;;;;4.43;2.55;;;;;23.90;101807.00;;;;5086079;28;20194;-76
2023/06/15 03:05:32;;;;;;;4.43;2.85;;;;;23.90;101810.00;;;;5082015;28;20215;-76
2023/06/15 03:08:00;;;;;;;6.85;2.53;;;;;23.90;101812.00;;;;5086773;28;20218;-76
2023/06/15 03:10:28;;;;;;;3.35;3.05;;;;;23.90;101807.00;;;;5086417;28;20559;-77
2023/06/15 03:12:56;;;;;;;4.53;3.25;;;;;23.90;101808.00;;;;5085052;28;20217;-77
2023/06/15 03:15:23;;;;;;;4.50;2.58;;;;;23.90;101809.00;;;;5085889;28;20194;-77
2023/06/15 03:17:51;;;;;;;4.10;2.80;;;;;23.90;101810.00;;;;5088336;28;20259;-77
2023/06/15 03:20:18;;;;;;;2.67;2.17;;;;;23.90;101807.00;;;;5083188;28;20703;-77
2023/06/15 03:22:47;;;;;;;4.57;2.53;;;;;23.90;101808.00;;;;5080520;28;20214;-77
2023/06/15 03:25:15;;;;;;;3.08;2.40;;;;;23.90;101810.00;;;;5087365;28;20228;-77
2023/06/15 03:27:43;;;;;;;7.28;2.50;;;;;23.80;101815.00;;;;5087850;28;20218;-77
2023/06/15 03:30:12;;;;;;;4.00;2.72;;;;;23.90;101813.00;;;;5088107;28;20198;-77
2023/06/15 03:32:39;;;;;;;5.03;2.63;;;;;23.80;101820.00;;;;5086630;28;20234;-77
2023/06/15 03:35:07;;;;;;;5.00;3.10;;;;;23.80;101821.00;;;;5087793;28;20209;-77
2023/06/15 03:37:35;;;;;;;3.65;2.80;;;;;23.80;101818.00;;;;5087538;28;20413;-77
2023/06/15 03:40:05;;;;;;;4.53;2.70;;;;;23.80;101816.00;;;;5086716;28;20206;-76
2023/06/15 03:42:32;;;;;;;6.90;2.70;;;;;23.80;101815.00;;;;5080405;28;20202;-77
2023/06/15 03:45:01;;;;;;;3.83;2.70;;;;;23.80;101823.00;;;;5078796;28;20197;-77
2023/06/15 03:47:28;;;;;;;3.50;2.85;;;;;23.80;101823.00;;;;5074322;28;20711;-77
2023/06/15 03:49:56;;;;;;;4.18;3.03;;;;;23.80;101823.00;;;;5088325;28;20204;-77
2023/06/15 03:52:23;;;;;;;6.72;2.70;;;;;23.80;101824.00;;;;5087440;28;20195;-77
2023/06/15 03:54:51;;;;;;;3.45;2.80;;;;;23.80;101819.00;;;;5087527;28;20213;-76
2023/06/15 03:57:18;;;;;;;5.65;3.28;;;;;23.80;101817.00;;;;5074773;28;20199;-76
2023/06/15 03:59:45;;;;;;;5.50;3.03;;;;;23.80;101818.00;;;;5068215;28;20187;-77
2023/06/15 04:02:14;;;;;;;5.00;2.92;;;;;23.70;101822.00;;;;5082309;28;20622;-77
2023/06/15 04:04:41;;;;;;;3.72;2.97;;;;;23.70;101820.00;;;;5086138;28;20194;-77
2023/06/15 04:07:09;;;;;;;3.83;2.88;;;;;23.70;101823.00;;;;5085560;28;20217;-77
2023/06/15 04:09:37;;;;;;;6.10;2.75;;;;;23.70;101827.00;;;;5068323;28;20257;-77
2023/06/15 04:12:05;;;;;;;3.17;2.83;;;;;23.70;101830.00;;;;5067680;28;20208;-77
2023/06/15 04:14:33;;;;;;;6.47;2.72;;;;;23.70;101830.00;;;;5080964;28;20265;-76
2023/06/15 04:17:00;;;;;;;4.80;3.05;;;;;23.70;101824.00;;;;5087173;28;20874;-77
2023/06/15 04:19:29;;;;;;;3.65;2.88;;;;;23.70;101826.00;;;;5082284;28;20275;-77
2023/06/15 04:21:56;;;;;;;4.28;2.67;;;;;23.80;101828.00;;;;5079943;28;20202;-77
2023/06/15 04:24:23;;;;;;;6.70;3.13;;;;;23.80;101818.00;;;;5086443;28;20205;-77
2023/06/15 04:26:51;;;;;;;3.65;3.28;;;;;23.80;101825.00;;;;5086671;28;20229;-76
2023/06/15 04:29:18;;;;;;;5.85;3.22;;;;;23.80;101835.00;;;;5087258;28;20190;-76
2023/06/15 04:31:46;;;;;;;4.72;3.25;;;;;23.80;101832.00;;;;5080573;28;20266;-77
2023/06/15 04:34:15;;;;;;;6.18;3.25;;;;;23.80;101831.00;;;;5088417;28;20198;-77
2023/06/15 04:36:44;;;;;;;3.80;2.70;;;;;23.80;101830.00;;;;5081267;28;20286;-77
2023/06/15 04:39:11;;;;;;;4.47;3.45;;;;;23.90;101841.00;;;;5071271;28;20209;-77
2023/06/15 04:41:39;;;;;;;4.43;3.13;;;;;23.90;101831.00;;;;5070617;28;20199;-76
2023/06/15 04:44:06;;;;;;;3.72;3.25;;;;;23.90;101837.00;;;;5068493;28;20210;-77
2023/06/15 04:46:36;;;;;;;4.28;2.83;;;;;23.90;101836.00;;;;5082280;28;20222;-77
2023/06/15 04:49:03;;;;;;;5.20;3.20;;;;;24.00;101845.00;;;;5078417;28;20297;-77
2023/06/15 04:51:31;;;;;;;4.53;3.17;;;;;24.00;101841.00;;;;5081667;28;21109;-77
2023/06/15 04:53:59;;;;;;;6.80;3.72;;;;;24.00;101842.00;;;;5092477;28;20190;-77
2023/06/15 04:56:27;;;;;;;6.15;3.08;;;;;24.10;101846.00;;;;5089815;28;20198;-77
2023/06/15 04:58:55;;;;;;;5.93;3.25;;;;;24.10;101847.00;;;;5091890;28;20199;-77
2023/06/15 05:01:22;;;;;;;3.47;3.17;;;;;24.10;101851.00;;;;5090244;28;20230;-77
2023/06/15 05:03:51;;;;;;;6.25;3.22;;;;;24.20;101850.00;;;;5090302;28;20194;-77
2023/06/15 05:06:18;;;;;;;6.05;2.90;;;;;24.20;101854.00;;;;5088897;28;20240;-77
2023/06/15 05:08:46;;;;;;;4.40;2.95;;;;;24.20;101862.00;;;;5088104;28;20187;-77
2023/06/15 05:11:15;;;;;;;3.85;3.25;;;;;24.30;101856.00;;;;5090587;28;20218;-77
2023/06/15 05:13:42;;;;;;;4.68;3.15;;;;;24.30;101862.00;;;;5088121;28;20225;-77
2023/06/15 05:16:10;;;;;;;4.28;3.13;;;;;24.40;101856.00;;;;5091727;28;20198;-77
2023/06/15 05:18:37;;;;;;;4.70;3.17;;;;;24.40;101861.00;;;;5090621;28;20984;-76
2023/06/15 05:21:05;;;;;;;5.25;3.28;;;;;24.50;101859.00;;;;5088156;28;20203;-77
2023/06/15 05:23:33;;;;;;;3.58;2.53;;;;;24.50;101857.00;;;;5085642;28;20212;-78
2023/06/15 05:26:00;;;;;;;4.32;3.38;;;;;24.60;101862.00;;;;5092123;28;20194;-78
2023/06/15 05:28:29;;;;;;;4.28;3.25;;;;;24.60;101862.00;;;;5086649;28;20300;-80
2023/06/15 05:30:57;;;;;;;5.10;3.08;;;;;24.70;101860.00;;;;5088751;28;20233;-78
2023/06/15 05:33:24;;;;;;;4.45;3.10;;;;;24.70;101859.00;;;;5087656;28;20294;-78
2023/06/15 05:35:51;;;;;;;5.25;3.25;;;;;24.80;101856.00;;;;5082295;28;20202;-79
2023/06/15 05:38:20;;;;;;;4.15;3.30;;;;;24.90;101859.00;;;;5086451;28;20206;-78
2023/06/15 05:40:47;;;;;;;3.80;2.67;;;;;24.90;101869.00;;;;5082694;28;20205;-78
2023/06/15 05:43:15;;;;;;;3.60;3.08;;;;;25.00;101864.00;;;;5090424;28;20199;-78
2023/06/15 05:45:43;;;;;;;2.95;2.65;;;;;25.00;101870.00;;;;5085453;28;20207;-79
2023/06/15 05:48:10;;;;;;;3.42;2.78;;;;;25.10;101870.00;;;;5083882;28;20222;-78
2023/06/15 05:50:38;;;;;;;3.53;2.67;;;;;25.20;101870.00;;;;5084267;28;20197;-78
2023/06/15 05:53:05;;;;;;;4.45;2.17;;;;;25.20;101873.00;;;;5084717;28;20198;-78
2023/06/15 05:55:33;;;;;;;3.80;3.28;;;;;25.30;101865.00;;;;5083825;28;20199;-77
2023/06/15 05:58:02;;;;;;;8.30;3.28;;;;;25.40;101870.00;;;;5082313;28;20248;-78
2023/06/15 06:00:30;;;;;;;5.85;3.65;;;;;25.50;101870.00;;;;5087437;28;20683;-80
2023/06/15 06:02:59;;;;;;;4.90;3.42;;;;;25.50;101870.00;;;;5082657;28;20194;-80
2023/06/15 06:05:27;;;;;;;2.83;2.42;;;;;25.60;101865.00;;;;5082488;28;20214;-78
2023/06/15 06:07:54;;;;;;;3.80;2.88;;;;;25.70;101872.00;;;;5082003;28;20218;-79
2023/06/15 06:10:22;;;;;;;4.47;3.08;;;;;25.80;101873.00;;;;5089311;28;20613;-79
2023/06/15 06:12:49;;;;;;;5.75;3.10;;;;;25.80;101872.00;;;;5081213;28;20210;-80
2023/06/15 06:15:16;;;;;;;5.97;3.30;;;;;25.90;101873.00;;;;5070157;28;20206;-79
2023/06/15 06:17:44;;;;;;;3.25;2.95;;;;;26.00;101872.00;;;;5070500;28;20199;-79
2023/06/15 06:20:13;;;;;;;4.97;3.17;;;;;26.00;101873.00;;;;5084591;28;20593;-79
2023/06/15 06:22:41;;;;;;;4.03;3.22;;;;;26.10;101879.00;;;;5088905;28;20199;-80
2023/06/15 06:25:09;;;;;;;5.05;3.22;;;;;26.20;101873.00;;;;5090204;28;20187;-79
2023/06/15 06:27:36;;;;;;;4.28;3.13;;;;;26.20;101874.00;;;;5089473;28;20214;-79
2023/06/15 06:30:03;;;;;;;7.85;3.40;;;;;26.30;101876.00;;;;5079315;28;20195;-78
2023/06/15 06:32:31;;;;;;;6.05;2.95;;;;;26.40;101874.00;;;;5088222;28;20238;-78
2023/06/15 06:34:58;;;;;;;4.72;3.05;;;;;26.50;101879.00;;;;5090125;28;20209;-79
2023/06/15 06:37:27;;;;;;;3.97;3.58;;;;;26.50;101887.00;;;;5088918;28;20222;-78
2023/06/15 06:39:54;;;;;;;4.13;3.22;;;;;26.60;101881.00;;;;5090071;28;20202;-78
2023/06/15 06:42:21;;;;;;;4.15;3.28;;;;;26.70;101884.00;;;;5089019;28;20190;-79
2023/06/15 06:44:48;;;;;;;6.28;2.88;;;;;26.80;101880.00;;;;5090523;28;20225;-79
2023/06/15 06:47:16;;;;;;;7.30;3.80;;;;;26.90;101884.00;;;;5077639;28;20227;-79
2023/06/15 06:49:43;;;;;;;6.57;3.35;;;;;26.90;101884.00;;;;5069989;28;20202;-79
2023/06/15 06:52:11;;;;;;;3.47;3.17;;;;;27.00;101887.00;;;;5084894;28;20293;-78
2023/06/15 06:54:39;;;;;;;5.82;3.20;;;;;27.10;101883.00;;;;5089424;28;20198;-79
2023/06/15 06:57:07;;;;;;;6.60;3.60;;;;;27.10;101883.00;;;;5090193;28;20671;-78
2023/06/15 06:59:34;;;;;;;3.55;3.10;;;;;27.20;101885.00;;;;5088698;28;20213;-79
2023/06/15 07:02:02;;;;;;;5.18;3.53;;;;;27.30;101880.00;;;;5089429;28;20198;-78
2023/06/15 07:04:29;;;;;;;4.35;2.97;;;;;27.40;101883.00;;;;5085912;28;20201;-79
2023/06/15 07:06:56;;;;;;;3.85;3.13;;;;;27.50;101892.00;;;;5073906;28;20214;-79
2023/06/15 07:09:24;;;;;;;5.45;3.38;;;;;27.60;101885.00;;;;5088319;28;20194;-80
2023/06/15 07:11:52;;;;;;;4.97;3.38;;;;;27.60;101892.00;;;;5089905;28;20201;-79
2023/06/15 07:14:21;;;;;;;4.18;2.80;;;;;27.70;101906.00;;;;5088296;28;20200;-79
2023/06/15 07:16:48;;;;;;;2.60;2.38;;;;;27.80;101897.00;;;;5088181;28;20190;-78
2023/06/15 07:19:15;;;;;;;4.53;3.20;;;;;27.90;101891.00;;;;5089298;28;20201;-79
2023/06/15 07:21:43;;;;;;;3.90;3.08;;;;;28.00;101896.00;;;;5072950;28;20211;-79
2023/06/15 07:24:10;;;;;;;3.78;2.60;;;;;28.10;101894.00;;;;5069070;28;20198;-78
2023/06/15 07:26:37;;;;;;;3.50;3.13;;;;;28.20;101893.00;;;;5086683;28;20201;-78
2023/06/15 07:29:06;;;;;;;3.50;2.55;;;;;28.20;101895.00;;;;5088071;28;20225;-78
2023/06/15 07:31:33;;;;;;;3.65;3.22;;;;;28.30;101884.00;;;;5087407;28;20237;-79
2023/06/15 07:34:02;;;;;;;3.50;2.90;;;;;28.40;101885.00;;;;5088480;28;20251;-79
2023/06/15 07:36:29;;;;;;;3.25;2.47;;;;;28.60;101884.00;;;;5088463;28;20220;-79
2023/06/15 07:38:57;;;;;;;4.97;2.63;;;;;28.70;101890.00;;;;5071128;28;20234;-79
2023/06/15 07:41:25;;;;;;;5.28;3.13;;;;;28.80;101882.00;;;;5088200;28;20205;-78
2023/06/15 07:43:52;;;;;;;3.67;2.95;;;;;28.80;101890.00;;;;5088657;28;20568;-79
2023/06/15 07:46:20;;;;;;;5.75;2.75;;;;;28.90;101894.00;;;;5085970;28;20564;-79
2023/06/15 07:48:48;;;;;;;3.33;3.00;;;;;29.00;101890.00;;;;5087351;28;20241;-79
2023/06/15 07:51:15;;;;;;;2.90;2.47;;;;;29.10;101897.00;;;;5088249;28;20706;-79
2023/06/15 07:53:42;;;;;;;3.83;3.10;;;;;29.20;101897.00;;;;5088227;28;20194;-78
2023/06/15 07:56:10;;;;;;;3.47;3.13;;;;;29.30;101897.00;;;;5068310;28;20210;-79
2023/06/15 07:58:38;;;;;;;8.77;2.70;;;;;29.50;101894.00;;;;5086753;28;20206;-79
2023/06/15 08:01:06;;;;;;;7.43;3.28;;;;;29.60;101893.00;;;;5088257;28;20291;-78
2023/06/15 08:03:34;;;;;;;4.53;3.00;;;;;29.70;101895.00;;;;5087658;28;20198;-79
2023/06/15 08:06:02;;;;;;;3.10;2.80;;;;;29.80;101893.00;;;;5088356;28;20223;-79
2023/06/15 08:08:29;;;;;;;3.08;2.75;;;;;29.90;101892.00;;;;5086894;28;20221;-80
2023/06/15 08:10:56;;;;;;;3.22;2.90;;;;;30.00;101892.00;;;;5085863;28;20206;-79
2023/06/15 08:13:23;;;;;;;6.53;3.40;;;;;30.10;101896.00;;;;5087250;28;20212;-79
2023/06/15 08:15:51;;;;;;;4.82;2.97;;;;;30.20;101890.00;;;;5089053;28;20190;-79
2023/06/15 08:18:18;;;;;;;4.57;2.83;;;;;30.30;101888.00;;;;5086180;28;20206;-80
2023/06/15 08:20:48;;;;;;;5.18;3.45;;;;;30.30;101898.00;;;;5087483;28;20212;-80
2023/06/15 08:23:16;;;;;;;4.10;3.33;;;;;30.40;101893.00;;;;5085203;28;20190;-79
2023/06/15 08:25:43;;;;;;;13.55;3.33;;;;;30.50;101892.00;;;;5080564;28;20210;-79
2023/06/15 08:28:11;;;;;;;4.75;3.42;;;;;30.60;101895.00;;;;5085589;28;20282;-77
2023/06/15 08:30:38;;;;;;;3.15;2.85;;;;;30.70;101895.00;;;;5077121;28;20198;-79
2023/06/15 08:33:05;;;;;;;3.40;2.70;;;;;30.80;101900.00;;;;5081441;28;20213;-78
2023/06/15 08:35:33;;;;;;;4.93;3.30;;;;;30.90;101896.00;;;;5082744;28;20190;-78
2023/06/15 08:38:02;;;;;;;7.80;2.60;;;;;30.90;101904.00;;;;5083443;28;20194;-79
2023/06/15 08:40:29;;;;;;;5.65;2.45;;;;;31.10;101908.00;;;;5081119;28;20198;-78
2023/06/15 08:42:59;;;;;;;5.13;3.00;;;;;31.10;101904.00;;;;5077137;28;20282;-77
2023/06/15 08:45:32;;;;;;;5.75;2.75;;;;;31.20;101901.00;;;;5077319;28;20205;-78
2023/06/15 08:48:01;;;;;;;2.88;2.58;;;;;31.30;101904.00;;;;5082453;28;20220;-79
2023/06/15 08:50:28;;;;;;;4.28;2.20;;;;;31.40;101898.00;;;;5084232;28;20205;-78
2023/06/15 08:52:56;;;;;;;6.78;3.20;;;;;31.50;101896.00;;;;5084073;28;20297;-78
2023/06/15 08:55:25;;;;;;;5.03;2.45;;;;;31.60;101893.00;;;;5086193;28;20201;-78
2023/06/15 08:57:53;;;;;;;3.30;2.60;;;;;31.70;101894.00;;;;5083499;28;20198;-78
2023/06/15 09:00:20;;;;;;;2.17;1.98;;;;;31.80;101893.00;;;;5079840;28;20210;-79
2023/06/15 09:02:48;;;;;;;3.40;2.17;;;;;31.90;101889.00;;;;5083301;28;20213;-79
2023/06/15 09:05:16;;;;;;;4.82;2.42;;;;;32.00;101898.00;;;;5079439;28;20813;-79
2023/06/15 09:07:43;;;;;;;3.97;2.33;;;;;32.10;101896.00;;;;5084513;28;20228;-79
2023/06/15 09:10:17;;;;;;;3.80;2.70;;;;;32.10;101892.00;;;;5082960;28;20198;-79
2023/06/15 09:12:47;;;;;;;7.63;2.85;;;;;32.20;101895.00;;;;5077012;28;20546;-78
2023/06/15 09:15:23;;;;;;;5.97;2.63;;;;;32.30;101895.00;;;;5081279;28;20202;-79
2023/06/15 09:17:53;;;;;;;3.33;2.50;;;;;32.40;101893.00;;;;5082576;28;20561;-78
2023/06/15 09:20:24;;;;;;;4.00;2.85;;;;;32.50;101898.00;;;;5077377;28;20218;-78
2023/06/15 09:22:52;;;;;;;4.63;2.30;;;;;32.70;101900.00;;;;5070871;28;20209;-79
2023/06/15 09:25:20;;;;;;;2.70;2.50;;;;;32.70;101895.00;;;;5084176;28;20206;-79
2023/06/15 09:27:57;;;;;;;2.90;2.58;;;;;32.80;101896.00;;;;5081969;28;20194;-78
2023/06/15 09:30:31;;;;;;;3.90;2.78;;;;;32.90;101896.00;;;;5088697;28;20209;-78
2023/06/15 09:32:58;;;;;;;5.78;2.90;;;;;33.00;101894.00;;;;5085931;28;20186;-78
2023/06/15 09:35:25;;;;;;;5.20;2.95;;;;;33.10;101894.00;;;;5085076;28;20198;-78
2023/06/15 09:37:55;;;;;;;5.07;2.80;;;;;33.20;101893.00;;;;5079139;28;20194;-79
2023/06/15 09:40:24;;;;;;;4.25;2.55;;;;;33.30;101894.00;;;;5080554;28;20206;-79
2023/06/15 09:42:55;;;;;;;4.95;2.60;;;;;33.40;101888.00;;;;5087762;28;20200;-78
2023/06/15 09:45:24;;;;;;;3.75;2.58;;;;;33.40;101889.00;;;;5091365;28;20194;-80
2023/06/15 09:47:56;;;;;;;5.93;2.92;;;;;33.50;101893.00;;;;5086480;28;20284;-78
2023/06/15 09:50:29;;;;;;;2.72;2.42;;;;;33.50;101893.00;;;;5090290;28;20194;-79
2023/06/15 09:52:58;;;;;;;3.35;2.83;;;;;33.60;101887.00;;;;5089477;28;20737;-79
2023/06/15 09:55:26;;;;;;;3.35;2.70;;;;;33.70;101888.00;;;;5082960;28;20209;-79
2023/06/15 09:57:54;;;;;;;3.25;2.42;;;;;33.70;101887.00;;;;5103208;28;20690;-79
2023/06/15 10:00:24;;;;;;;3.22;2.10;;;;;33.70;101888.00;;;;5090393;28;20255;-79
2023/06/15 10:02:56;;;;;;;3.08;2.30;;;;;33.80;101882.00;;;;5090526;28;20202;-79
2023/06/15 10:05:31;;;;;;;3.03;2.17;;;;;33.80;101872.00;;;;5087164;28;20267;-79
2023/06/15 10:08:01;;;;;;;3.25;2.60;;;;;33.90;101880.00;;;;5089220;28;20201;-81
2023/06/15 10:10:31;;;;;;;2.40;2.20;;;;;34.00;101881.00;;;;5081446;28;20198;-80
2023/06/15 10:13:00;;;;;;;2.50;2.08;;;;;34.10;101890.00;;;;5090098;28;20560;-80
2023/06/15 10:15:33;;;;;;;3.10;2.55;;;;;34.10;101885.00;;;;5090428;28;20213;-80
2023/06/15 10:18:03;;;;;;;3.92;2.72;;;;;34.00;101879.00;;;;5089374;28;20284;-80
2023/06/15 10:20:33;;;;;;;4.95;3.03;;;;;34.10;101875.00;;;;5087323;28;20308;-82
2023/06/15 10:23:04;;;;;;;5.70;3.05;;;;;34.10;101877.00;;;;5088218;28;20190;-81
2023/06/15 10:25:32;;;;;;;5.72;2.72;;;;;34.20;101880.00;;;;5085551;28;20567;-81
2023/06/15 10:28:02;;;;;;;5.47;2.80;;;;;34.20;101883.00;;;;5079641;28;20234;-81
2023/06/15 10:30:38;;;;;;;2.97;2.42;;;;;34.10;101884.00;;;;5088172;28;20290;-82
2023/06/15 10:33:11;;;;;;;3.55;2.60;;;;;34.10;101882.00;;;;5089942;28;20200;-80
2023/06/15 10:35:45;;;;;;;2.95;2.33;;;;;34.00;101889.00;;;;5086866;28;20205;-81
2023/06/15 10:38:25;;;;;;;5.05;2.60;;;;;33.90;101888.00;;;;5078070;28;20202;-80
2023/06/15 10:40:54;;;;;;;4.53;2.20;;;;;34.00;101882.00;;;;5072023;28;20194;-80
2023/06/15 10:43:23;;;;;;;5.30;2.75;;;;;34.10;101877.00;;;;5089146;28;20617;-80
2023/06/15 10:45:53;;;;;;;3.22;1.80;;;;;34.10;101882.00;;;;5085708;28;20202;-80
2023/06/15 10:48:26;;;;;;;10.82;3.47;;;;;34.10;101878.00;;;;5089244;28;20231;-81
2023/06/15 10:51:02;;;;;;;3.63;2.30;;;;;34.20;101877.00;;;;5088064;28;20204;-81
2023/06/15 10:53:34;;;;;;;2.10;1.95;;;;;34.30;101886.00;;;;5089215;28;20197;-79
2023/06/15 10:56:02;;;;;;;3.50;2.75;;;;;34.30;101885.00;;;;5088803;28;20197;-79
2023/06/15 10:58:30;;;;;;;3.15;2.20;;;;;34.40;101889.00;;;;5089293;28;20197;-78
2023/06/15 11:01:10;;;;;;;3.58;2.35;;;;;34.30;101883.00;;;;5086678;28;20614;-79
2023/06/15 11:03:40;;;;;;;2.60;2.15;;;;;34.40;101876.00;;;;5084825;28;20209;-80
2023/06/15 11:06:13;;;;;;;3.42;2.17;;;;;34.40;101870.00;;;;5088826;28;20214;-80
2023/06/15 11:08:50;;;;;;;3.47;2.40;;;;;34.40;101864.00;;;;5088503;28;20252;-80
2023/06/15 11:11:20;;;;;;;2.30;2.08;;;;;34.50;101864.00;;;;5083038;28;20229;-81
2023/06/15 11:14:00;;;;;;;2.45;2.05;;;;;34.50;101862.00;;;;5089102;28;20190;-81
2023/06/15 11:16:31;;;;;;;2.30;2.10;;;;;34.50;101872.00;;;;5084566;28;20614;-79
2023/06/15 11:19:22;;;;;;;2.35;1.75;;;;;34.40;101874.00;;;;5083108;28;20619;-79
2023/06/15 11:21:59;;;;;;;2.75;2.03;;;;;34.40;101872.00;;;;5080316;28;20644;-78
2023/06/15 11:24:29;;;;;;;2.40;2.15;;;;;34.30;101873.00;;;;5082567;28;20205;-78
2023/06/15 11:27:02;;;;;;;3.47;2.33;;;;;34.30;101875.00;;;;5085148;28;20662;-79
2023/06/15 11:29:33;;;;;;;4.53;1.90;;;;;34.30;101874.00;;;;5089048;28;20217;-79
2023/06/15 11:32:04;;;;;;;3.17;2.10;;;;;34.20;101869.00;;;;5080376;28;20309;-80
2023/06/15 11:34:32;;;;;;;3.67;1.90;;;;;34.30;101865.00;;;;5081279;28;20258;-79
2023/06/15 11:37:01;;;;;;;1.90;1.80;;;;;34.30;101865.00;;;;5085356;28;20289;-79
2023/06/15 11:39:29;;;;;;;6.07;1.70;;;;;34.30;101863.00;;;;5088903;28;20197;-78
2023/06/15 11:41:58;;;;;;;2.20;1.80;;;;;34.30;101864.00;;;;5084079;28;20194;-80
2023/06/15 11:44:27;;;;;;;2.63;2.42;;;;;34.30;101871.00;;;;5074792;28;20218;-79
2023/06/15 11:46:55;;;;;;;3.35;2.58;;;;;34.40;101860.00;;;;5086698;28;20255;-76
2023/06/15 11:49:24;;;;;;;2.30;2.10;;;;;34.40;101860.00;;;;5087266;28;20227;-79
2023/06/15 11:51:53;;;;;;;1.88;1.73;;;;;34.40;101857.00;;;;5080851;28;20237;-80
2023/06/15 11:54:25;;;;;;;2.53;2.08;;;;;34.40;101856.00;;;;5076087;28;20750;-77
2023/06/15 11:56:52;;;;;;;3.65;2.30;;;;;34.40;101851.00;;;;5087024;28;20202;-76
2023/06/15 11:59:22;;;;;;;2.08;1.88;;;;;34.40;101849.00;;;;5087304;28;20206;-76
2023/06/15 12:01:50;;;;;;;3.92;2.00;;;;;34.40;101858.00;;;;5086860;28;20618;-77
2023/06/15 12:04:18;;;;;;;2.95;1.90;;;;;34.40;101853.00;;;;5087318;28;20206;-77
2023/06/15 12:06:47;;;;;;;4.40;2.50;;;;;34.30;101848.00;;;;5084892;28;20221;-76
2023/06/15 12:09:16;;;;;;;2.38;1.65;;;;;34.20;101846.00;;;;5084606;28;20223;-79
2023/06/15 12:11:45;;;;;;;2.22;2.03;;;;;34.10;101849.00;;;;5081035;28;20573;-80
2023/06/15 12:14:16;;;;;;;3.53;1.77;;;;;34.10;101846.00;;;;5088296;28;20201;-79
2023/06/15 12:16:50;;;;;;;4.03;2.22;;;;;34.00;101842.00;;;;5088126;28;20186;-79